1995 ANGELA (1995293N05177)


On this page: IBTrACS data - Map and Plots - Positions - Intensities - Original source data

Summary

Start Oct 20
End Nov 7
Basin WP
LMI 155 kt
Sources jtwc_wp
tokyo
cma
hko
In WMO? Yes
Previous storm 1995 YVETTE (WP)
Previous in basin 1995 YVETTE (WP)
Concurrent storms 1995 ROXANNE (NA)
1995 WARD (WP)
1995 YVETTE (WP)
1995 ANGELA (WP)
1995 ZACK (WP)
1995 SEBASTIEN (NA)
1995 TANYA (NA)
1995 BRIAN (WP)
1995 MISSING (NI)
Next in basin 1995 ZACK (WP)
Next storm 1995 ZACK (WP)

top of page IBTrACS Data: File Access

top of page HURSAT Data: File Access

Image of storm

top of page Plots:

Map of storm track will not appear if FTP is down
Time series of cyclone Maximum Sustained Wind will not appear if FTP is down
Time series of cyclone Minimum Central Pressure will not appear if FTP is down

top of page Track Data:Position

jtwc_wp tokyo cma hko
Date Lat Lon Lat Lon Lat Lon Lat Lon
1995-10-20 06:00:00 5.0 176.5
1995-10-20 12:00:00 5.0 175.1
1995-10-20 18:00:00 5.0 173.5
1995-10-21 00:00:00 5.2 172.0
1995-10-21 06:00:00 5.6 170.7
1995-10-21 12:00:00 6.1 169.4
1995-10-21 18:00:00 6.5 168.3
1995-10-22 00:00:00 7.0 167.0
1995-10-22 06:00:00 7.3 165.7
1995-10-22 12:00:00 7.5 164.5
1995-10-22 18:00:00 7.7 163.4
1995-10-23 00:00:00 7.9 161.9
1995-10-23 06:00:00 8.1 160.2
1995-10-23 12:00:00 8.4 158.3
1995-10-23 18:00:00 8.7 156.3
1995-10-24 00:00:00 9.0 154.5
1995-10-24 06:00:00 9.3 152.9
1995-10-24 12:00:00 9.7 151.4
1995-10-24 18:00:00 10.0 150.0
1995-10-25 00:00:00 10.1 149.0
1995-10-25 06:00:00 10.2 148.2
1995-10-25 12:00:00 10.2 147.5 10.2 148.2
1995-10-25 18:00:00 10.2 146.5 9.6 146.7 10.2 146.7
1995-10-26 00:00:00 10.4 145.4 10.0 145.4 10.0 145.0 10.2 145.5
1995-10-26 06:00:00 10.9 144.3 10.5 144.5 10.5 144.3 10.5 144.4
jtwc_wp tokyo cma hko
1995-10-26 12:00:00 11.4 143.2 10.9 143.6 11.0 143.5 11.0 143.5
1995-10-26 18:00:00 11.8 142.2 11.6 142.7 11.6 142.7 11.6 142.7
1995-10-27 00:00:00 12.1 141.6 12.2 141.8 12.2 141.8 12.0 141.9
1995-10-27 06:00:00 12.3 140.9 12.7 140.9 12.7 140.9 12.3 141.3
1995-10-27 12:00:00 12.5 140.4 13.0 140.0 13.0 140.0 12.6 140.6
1995-10-27 18:00:00 12.8 139.7 13.2 139.3 13.2 139.3 12.9 139.8
1995-10-28 00:00:00 13.0 138.9 13.2 138.8 13.2 138.8 13.1 139.0
1995-10-28 06:00:00 13.1 138.2 13.1 138.4 13.1 138.4 13.2 138.4
1995-10-28 12:00:00 12.9 137.9 13.0 138.0 13.0 138.0 13.2 138.0
1995-10-28 18:00:00 12.7 137.9 12.8 138.0 13.0 138.0 12.9 138.0
1995-10-29 00:00:00 12.7 138.0 12.7 138.2 12.7 137.8 12.8 138.3
1995-10-29 06:00:00 12.5 138.0 12.5 138.3 12.7 138.3 12.6 138.2
1995-10-29 12:00:00 12.1 137.9 12.3 138.0 12.3 138.0 12.5 137.8
1995-10-29 18:00:00 11.8 137.5 12.2 137.4 12.2 137.4 12.5 137.3
1995-10-30 00:00:00 11.7 136.6 12.1 136.5 12.1 136.5 12.3 136.7
1995-10-30 06:00:00 11.7 135.9 11.9 135.9 11.9 135.9 12.0 136.0
1995-10-30 12:00:00 11.7 135.1 11.7 135.3 11.7 135.3 11.9 135.3
1995-10-30 18:00:00 11.8 134.3 11.7 134.7 11.8 134.7 11.8 134.6
1995-10-31 00:00:00 11.9 133.4 12.0 133.6 12.0 133.6 12.0 133.6
1995-10-31 06:00:00 12.0 132.4 12.3 132.6 12.3 132.5 12.2 132.5
1995-10-31 12:00:00 12.2 131.3 12.4 131.3 12.4 131.3 12.3 131.3
1995-10-31 18:00:00 12.4 130.4 12.4 130.2 12.4 130.2 12.4 130.2
1995-11-01 00:00:00 12.7 129.6 12.6 129.6 12.6 129.5 12.7 129.7
1995-11-01 06:00:00 13.4 128.9 13.3 129.0 13.3 129.0 13.3 128.9
jtwc_wp tokyo cma hko
1995-11-01 12:00:00 14.0 128.1 14.1 128.2 14.1 128.2 14.1 128.1
1995-11-01 18:00:00 14.3 127.0 14.4 126.9 14.4 126.8 14.3 126.9
1995-11-02 00:00:00 14.2 126.0 14.3 126.0 14.3 126.0 14.2 126.0
1995-11-02 06:00:00 14.2 125.1 14.2 125.1 14.2 125.1 14.2 125.1
1995-11-02 12:00:00 14.1 124.1 14.0 124.3 14.0 124.2 14.2 124.2
1995-11-02 18:00:00 14.1 123.1 14.1 123.2 14.1 123.2 14.2 123.2
1995-11-03 00:00:00 14.3 121.6 14.2 121.9 14.2 121.9 14.3 122.0
1995-11-03 06:00:00 14.5 120.1 14.4 120.2 14.4 119.9 14.5 120.6
1995-11-03 12:00:00 14.6 119.0 14.6 119.0 14.6 118.8 14.7 119.0
1995-11-03 18:00:00 14.7 118.0 14.5 118.0 14.6 117.8 14.7 118.0
1995-11-04 00:00:00 14.8 116.9 14.5 117.1 14.5 117.1 14.7 117.0
1995-11-04 06:00:00 14.9 115.9 15.0 116.1 15.0 116.1 14.9 116.0
1995-11-04 12:00:00 15.0 114.9 15.2 114.9 15.3 114.7 15.1 114.9
1995-11-04 18:00:00 15.2 113.9 15.4 113.8 15.6 113.6 15.4 113.8
1995-11-05 00:00:00 15.6 112.9 15.8 112.9 15.9 112.7 15.8 112.7
1995-11-05 06:00:00 16.1 112.0 16.2 112.0 16.5 111.8 16.2 111.8
1995-11-05 12:00:00 16.4 111.5 16.5 111.2 17.2 111.2 16.7 111.1
1995-11-05 18:00:00 16.8 110.9 17.0 110.6 17.9 110.5 17.1 110.4
1995-11-06 00:00:00 17.2 110.3 17.5 110.1 18.2 109.7 17.5 110.0
1995-11-06 06:00:00 17.6 109.5 17.8 109.5 18.4 109.4 17.9 109.5
1995-11-06 12:00:00 18.1 108.7 18.2 109.0 18.8 108.5 18.5 109.1
1995-11-06 18:00:00 18.6 108.2 18.6 108.7 19.0 107.4
1995-11-07 00:00:00 19.2 108.0 19.3 108.3 19.0 107.4
1995-11-07 06:00:00 19.8 107.5 19.7 108.0
jtwc_wp tokyo cma hko
1995-11-07 12:00:00 19.8 106.8 19.5 108.2

top of pageTrack Data:Intensity

jtwc_wp tokyo cma hko
Date Wind Pres Wind Pres Wind Pres Wind Pres
1995-10-20 06:00:00 15.
1995-10-20 12:00:00 15.
1995-10-20 18:00:00 15.
1995-10-21 00:00:00 15.
1995-10-21 06:00:00 15.
1995-10-21 12:00:00 15.
1995-10-21 18:00:00 15.
1995-10-22 00:00:00 15.
1995-10-22 06:00:00 15.
1995-10-22 12:00:00 15.
1995-10-22 18:00:00 15.
1995-10-23 00:00:00 15.
1995-10-23 06:00:00 15.
1995-10-23 12:00:00 15.
1995-10-23 18:00:00 15.
1995-10-24 00:00:00 15.
1995-10-24 06:00:00 20.
1995-10-24 12:00:00 20.
1995-10-24 18:00:00 20.
1995-10-25 00:00:00 20.
1995-10-25 06:00:00 20.
1995-10-25 12:00:00 25. 25. 1004.
1995-10-25 18:00:00 30. 1006. 25. 1004.
1995-10-26 00:00:00 35. 1008. 23. 1006. 30. 1000.
1995-10-26 06:00:00 40. 1006. 23. 1004. 30. 1000.
jtwc_wp tokyo cma hko
1995-10-26 12:00:00 40. 1004. 29. 1002. 30. 1000.
1995-10-26 18:00:00 45. 35. 1000. 29. 1000. 35. 996.
1995-10-27 00:00:00 50. 40. 996. 39. 995. 40. 992.
1995-10-27 06:00:00 55. 45. 992. 39. 995. 45. 990.
1995-10-27 12:00:00 60. 45. 992. 39. 995. 45. 990.
1995-10-27 18:00:00 60. 45. 992. 39. 995. 45. 990.
1995-10-28 00:00:00 65. 45. 992. 39. 995. 45. 990.
1995-10-28 06:00:00 70. 50. 990. 39. 995. 45. 990.
1995-10-28 12:00:00 70. 50. 990. 39. 995. 45. 990.
1995-10-28 18:00:00 75. 50. 990. 49. 985. 50. 985.
1995-10-29 00:00:00 75. 55. 985. 49. 985. 55. 980.
1995-10-29 06:00:00 75. 55. 985. 49. 985. 55. 980.
1995-10-29 12:00:00 75. 55. 985. 49. 985. 55. 980.
1995-10-29 18:00:00 75. 55. 985. 49. 985. 55. 980.
1995-10-30 00:00:00 75. 60. 980. 49. 985. 60. 975.
1995-10-30 06:00:00 75. 60. 980. 58. 980. 60. 975.
1995-10-30 12:00:00 85. 65. 975. 58. 980. 60. 975.
1995-10-30 18:00:00 90. 70. 970. 58. 980. 60. 975.
1995-10-31 00:00:00 90. 75. 960. 64. 975. 65. 970.
1995-10-31 06:00:00 90. 75. 960. 68. 970. 70. 965.
1995-10-31 12:00:00 115. 80. 955. 68. 970. 75. 960.
1995-10-31 18:00:00 135. 85. 945. 78. 960. 80. 955.
1995-11-01 00:00:00 155. 95. 930. 87. 950. 90. 945.
1995-11-01 06:00:00 155. 105. 920. 107. 930. 105. 930.
jtwc_wp tokyo cma hko
1995-11-01 12:00:00 155. 110. 915. 117. 925. 105. 930.
1995-11-01 18:00:00 155. 115. 910. 117. 925. 105. 930.
1995-11-02 00:00:00 155. 115. 910. 117. 925. 100. 935.
1995-11-02 06:00:00 155. 115. 910. 117. 925. 100. 935.
1995-11-02 12:00:00 155. 105. 920. 97. 940. 100. 935.
1995-11-02 18:00:00 140. 90. 935. 78. 960. 90. 945.
1995-11-03 00:00:00 140. 85. 945. 68. 970. 80. 955.
1995-11-03 06:00:00 120. 75. 965. 58. 980. 75. 960.
1995-11-03 12:00:00 125. 75. 965. 49. 985. 65. 970.
1995-11-03 18:00:00 125. 75. 960. 49. 985. 65. 970.
1995-11-04 00:00:00 115. 75. 960. 49. 985. 65. 970.
1995-11-04 06:00:00 115. 75. 960. 49. 985. 60. 975.
1995-11-04 12:00:00 115. 75. 960. 49. 985. 60. 975.
1995-11-04 18:00:00 115. 70. 965. 49. 985. 60. 975.
1995-11-05 00:00:00 110. 65. 970. 49. 985. 60. 975.
1995-11-05 06:00:00 100. 60. 975. 49. 985. 60. 975.
1995-11-05 12:00:00 90. 55. 980. 49. 985. 55. 980.
1995-11-05 18:00:00 75. 50. 985. 49. 985. 45. 990.
1995-11-06 00:00:00 65. 45. 992. 29. 1000. 40. 992.
1995-11-06 06:00:00 55. 35. 998. 29. 1000. 35. 996.
1995-11-06 12:00:00 40. 1002. 29. 1000. 30. 1000.
1995-11-06 18:00:00 30. 1006. 29. 1000.
1995-11-07 00:00:00 20. 1008. 29. 1000.
1995-11-07 06:00:00 15. 1010.
jtwc_wp tokyo cma hko
1995-11-07 12:00:00 15. 1014.

top of page Links to source data

Source Source file Format
jtwc_wp bwp291995.txt ATCF
tokyo bst_all.txt:Line=45565:ANGELA:9520 JMA text table
cma CH1995BST.txt:Storm=21:Angela CMA text table
hko tc-besttrack-data.txt:Line=25363:ANGELA HKO Text table